sensor_id;sensor_type;location;lat;lon;timestamp;pressure;altitude;pressure_sealevel;temperature;humidity
61573;BME280;47465;43.094;12.434;2022-10-17T00:02:07;99767.03;;;12.58;100.00
61573;BME280;47465;43.094;12.434;2022-10-17T00:04:33;99782.00;;;12.65;100.00
61573;BME280;47465;43.094;12.434;2022-10-17T00:06:59;99768.94;;;12.51;100.00
61573;BME280;47465;43.094;12.434;2022-10-17T00:09:25;99772.53;;;12.49;100.00
61573;BME280;47465;43.094;12.434;2022-10-17T00:11:50;99773.38;;;12.51;100.00
61573;BME280;47465;43.094;12.434;2022-10-17T00:14:16;99783.13;;;12.53;100.00
61573;BME280;47465;43.094;12.434;2022-10-17T00:16:42;99762.88;;;12.42;100.00
61573;BME280;47465;43.094;12.434;2022-10-17T00:19:09;99788.47;;;12.53;100.00
61573;BME280;47465;43.094;12.434;2022-10-17T00:21:35;99784.09;;;12.49;100.00
61573;BME280;47465;43.094;12.434;2022-10-17T00:24:01;99783.25;;;12.47;100.00
61573;BME280;47465;43.094;12.434;2022-10-17T00:26:26;99792.16;;;12.46;100.00
61573;BME280;47465;43.094;12.434;2022-10-17T00:28:54;99794.81;;;12.46;100.00
61573;BME280;47465;43.094;12.434;2022-10-17T00:31:21;99793.00;;;12.48;100.00
61573;BME280;47465;43.094;12.434;2022-10-17T00:33:47;99793.94;;;12.46;100.00
61573;BME280;47465;43.094;12.434;2022-10-17T00:36:17;99787.06;;;12.34;100.00
61573;BME280;47465;43.094;12.434;2022-10-17T00:38:45;99773.81;;;12.28;100.00
61573;BME280;47465;43.094;12.434;2022-10-17T00:41:13;99783.41;;;12.38;100.00
61573;BME280;47465;43.094;12.434;2022-10-17T00:43:53;99786.03;;;12.40;100.00
61573;BME280;47465;43.094;12.434;2022-10-17T00:46:20;99794.06;;;12.38;100.00
61573;BME280;47465;43.094;12.434;2022-10-17T00:48:47;99789.66;;;12.37;100.00
61573;BME280;47465;43.094;12.434;2022-10-17T00:51:16;99789.78;;;12.29;100.00
61573;BME280;47465;43.094;12.434;2022-10-17T00:53:43;99784.53;;;12.25;100.00
61573;BME280;47465;43.094;12.434;2022-10-17T00:56:10;99789.84;;;12.26;100.00
61573;BME280;47465;43.094;12.434;2022-10-17T00:58:36;99790.78;;;12.24;100.00
61573;BME280;47465;43.094;12.434;2022-10-17T01:01:02;99775.81;;;12.17;100.00
61573;BME280;47465;43.094;12.434;2022-10-17T01:03:28;99787.28;;;12.19;100.00
61573;BME280;47465;43.094;12.434;2022-10-17T01:05:54;99803.19;;;12.26;100.00
61573;BME280;47465;43.094;12.434;2022-10-17T01:08:21;99790.72;;;12.27;100.00
61573;BME280;47465;43.094;12.434;2022-10-17T01:10:52;99798.59;;;12.35;100.00
61573;BME280;47465;43.094;12.434;2022-10-17T01:13:26;99797.72;;;12.34;100.00
61573;BME280;47465;43.094;12.434;2022-10-17T01:16:00;99800.31;;;12.37;100.00
61573;BME280;47465;43.094;12.434;2022-10-17T01:18:41;99788.88;;;12.32;100.00
61573;BME280;47465;43.094;12.434;2022-10-17T01:21:20;99779.19;;;12.25;100.00
61573;BME280;47465;43.094;12.434;2022-10-17T01:24:19;99787.97;;;12.31;100.00
61573;BME280;47465;43.094;12.434;2022-10-17T01:27:11;99783.69;;;12.23;100.00
61573;BME280;47465;43.094;12.434;2022-10-17T01:29:56;99777.53;;;12.19;100.00
61573;BME280;47465;43.094;12.434;2022-10-17T01:32:30;99775.84;;;12.13;100.00
61573;BME280;47465;43.094;12.434;2022-10-17T01:35:04;99791.75;;;12.20;100.00
61573;BME280;47465;43.094;12.434;2022-10-17T01:37:39;99770.53;;;12.12;100.00
61573;BME280;47465;43.094;12.434;2022-10-17T01:40:11;99777.63;;;12.15;100.00
61573;BME280;47465;43.094;12.434;2022-10-17T01:42:43;99767.06;;;12.08;100.00
61573;BME280;47465;43.094;12.434;2022-10-17T01:45:13;99764.38;;;12.08;100.00
61573;BME280;47465;43.094;12.434;2022-10-17T01:47:43;99778.56;;;12.10;100.00
61573;BME280;47465;43.094;12.434;2022-10-17T01:50:15;99776.00;;;12.06;100.00
61573;BME280;47465;43.094;12.434;2022-10-17T01:52:44;99784.94;;;12.02;100.00
61573;BME280;47465;43.094;12.434;2022-10-17T01:55:14;99784.91;;;12.03;100.00
61573;BME280;47465;43.094;12.434;2022-10-17T01:57:47;99762.91;;;11.87;100.00
61573;BME280;47465;43.094;12.434;2022-10-17T02:00:18;99778.78;;;11.98;100.00
61573;BME280;47465;43.094;12.434;2022-10-17T02:02:48;99786.75;;;11.98;100.00
61573;BME280;47465;43.094;12.434;2022-10-17T02:05:15;99782.38;;;11.94;100.00
61573;BME280;47465;43.094;12.434;2022-10-17T02:07:41;99771.84;;;11.86;100.00
61573;BME280;47465;43.094;12.434;2022-10-17T02:10:11;99779.81;;;11.89;100.00
61573;BME280;47465;43.094;12.434;2022-10-17T02:12:47;99768.41;;;11.80;100.00
61573;BME280;47465;43.094;12.434;2022-10-17T02:15:26;99783.38;;;11.87;100.00
61573;BME280;47465;43.094;12.434;2022-10-17T02:17:59;99783.34;;;11.90;100.00
61573;BME280;47465;43.094;12.434;2022-10-17T02:20:32;99786.88;;;11.90;100.00
61573;BME280;47465;43.094;12.434;2022-10-17T02:23:07;99772.81;;;11.81;100.00
61573;BME280;47465;43.094;12.434;2022-10-17T02:25:38;99786.00;;;11.90;100.00
61573;BME280;47465;43.094;12.434;2022-10-17T02:28:18;99779.84;;;11.86;100.00
61573;BME280;47465;43.094;12.434;2022-10-17T02:30:50;99779.94;;;11.80;100.00
61573;BME280;47465;43.094;12.434;2022-10-17T02:33:22;99791.44;;;11.82;100.00
61573;BME280;47465;43.094;12.434;2022-10-17T02:35:52;99780.94;;;11.71;100.00
61573;BME280;47465;43.094;12.434;2022-10-17T02:38:19;99789.72;;;11.78;100.00
61573;BME280;47465;43.094;12.434;2022-10-17T02:40:48;99783.69;;;11.67;100.00
61573;BME280;47465;43.094;12.434;2022-10-17T02:43:15;99779.25;;;11.64;100.00
61573;BME280;47465;43.094;12.434;2022-10-17T02:45:40;99792.53;;;11.69;100.00
61573;BME280;47465;43.094;12.434;2022-10-17T02:48:09;99805.72;;;11.77;100.00
61573;BME280;47465;43.094;12.434;2022-10-17T02:50:44;99800.47;;;11.72;100.00
61573;BME280;47465;43.094;12.434;2022-10-17T02:53:16;99788.25;;;11.59;100.00
61573;BME280;47465;43.094;12.434;2022-10-17T02:55:49;99787.41;;;11.54;100.00
61573;BME280;47465;43.094;12.434;2022-10-17T02:58:19;99781.19;;;11.56;100.00
61573;BME280;47465;43.094;12.434;2022-10-17T03:00:46;99815.69;;;11.65;100.00
61573;BME280;47465;43.094;12.434;2022-10-17T03:03:21;99793.66;;;11.54;100.00
61573;BME280;47465;43.094;12.434;2022-10-17T03:05:49;99798.78;;;11.66;100.00
61573;BME280;47465;43.094;12.434;2022-10-17T03:08:15;99793.34;;;11.72;100.00
61573;BME280;47465;43.094;12.434;2022-10-17T03:10:40;99802.97;;;11.83;100.00
61573;BME280;47465;43.094;12.434;2022-10-17T03:13:06;99796.69;;;11.87;100.00
61573;BME280;47465;43.094;12.434;2022-10-17T03:15:32;99788.00;;;11.76;100.00
61573;BME280;47465;43.094;12.434;2022-10-17T03:17:58;99783.53;;;11.78;100.00
61573;BME280;47465;43.094;12.434;2022-10-17T03:20:24;99791.47;;;11.79;100.00
61573;BME280;47465;43.094;12.434;2022-10-17T03:22:51;99808.22;;;11.87;100.00
61573;BME280;47465;43.094;12.434;2022-10-17T03:25:17;99806.47;;;11.89;100.00
61573;BME280;47465;43.094;12.434;2022-10-17T03:27:43;99808.09;;;11.97;100.00
61573;BME280;47465;43.094;12.434;2022-10-17T03:30:09;99804.56;;;11.96;100.00
61573;BME280;47465;43.094;12.434;2022-10-17T03:32:35;99797.59;;;11.86;100.00
61573;BME280;47465;43.094;12.434;2022-10-17T03:35:01;99796.78;;;11.81;100.00
61573;BME280;47465;43.094;12.434;2022-10-17T03:37:26;99811.84;;;11.85;100.00
61573;BME280;47465;43.094;12.434;2022-10-17T03:39:54;99793.41;;;11.71;100.00
61573;BME280;47465;43.094;12.434;2022-10-17T03:42:19;99813.56;;;11.87;100.00
61573;BME280;47465;43.094;12.434;2022-10-17T03:44:45;99792.31;;;11.84;100.00
61573;BME280;47465;43.094;12.434;2022-10-17T03:47:11;99815.06;;;12.05;100.00
61573;BME280;47465;43.094;12.434;2022-10-17T03:49:37;99792.13;;;11.97;100.00
61573;BME280;47465;43.094;12.434;2022-10-17T03:52:03;99809.72;;;12.08;100.00
61573;BME280;47465;43.094;12.434;2022-10-17T03:54:29;99805.25;;;12.09;100.00
61573;BME280;47465;43.094;12.434;2022-10-17T03:56:56;99792.88;;;12.03;100.00
61573;BME280;47465;43.094;12.434;2022-10-17T03:59:22;99795.44;;;12.12;100.00
61573;BME280;47465;43.094;12.434;2022-10-17T04:01:47;99794.75;;;11.98;100.00
61573;BME280;47465;43.094;12.434;2022-10-17T04:04:13;99802.00;;;11.90;100.00
61573;BME280;47465;43.094;12.434;2022-10-17T04:06:39;99815.31;;;11.90;100.00
61573;BME280;47465;43.094;12.434;2022-10-17T04:09:17;99818.91;;;11.89;100.00
61573;BME280;47465;43.094;12.434;2022-10-17T04:11:44;99809.25;;;11.79;100.00
61573;BME280;47465;43.094;12.434;2022-10-17T04:14:11;99814.53;;;11.82;100.00
61573;BME280;47465;43.094;12.434;2022-10-17T04:16:37;99819.03;;;11.80;100.00
61573;BME280;47465;43.094;12.434;2022-10-17T04:19:03;99828.78;;;11.79;100.00
61573;BME280;47465;43.094;12.434;2022-10-17T04:21:29;99812.94;;;11.68;100.00
61573;BME280;47465;43.094;12.434;2022-10-17T04:23:56;99843.09;;;11.74;100.00
61573;BME280;47465;43.094;12.434;2022-10-17T04:26:22;99816.69;;;11.58;100.00
61573;BME280;47465;43.094;12.434;2022-10-17T04:28:49;99821.97;;;11.60;100.00
61573;BME280;47465;43.094;12.434;2022-10-17T04:31:17;99824.59;;;11.63;100.00
61573;BME280;47465;43.094;12.434;2022-10-17T04:33:45;99812.38;;;11.48;100.00
61573;BME280;47465;43.094;12.434;2022-10-17T04:36:14;99838.88;;;11.56;100.00
61573;BME280;47465;43.094;12.434;2022-10-17T04:38:40;99829.22;;;11.50;100.00
61573;BME280;47465;43.094;12.434;2022-10-17T04:41:08;99845.19;;;11.50;100.00
61573;BME280;47465;43.094;12.434;2022-10-17T04:43:36;99833.75;;;11.42;100.00
61573;BME280;47465;43.094;12.434;2022-10-17T04:46:04;99822.38;;;11.30;100.00
61573;BME280;47465;43.094;12.434;2022-10-17T04:48:31;99838.16;;;11.46;100.00
61573;BME280;47465;43.094;12.434;2022-10-17T04:50:58;99837.94;;;11.61;100.00
61573;BME280;47465;43.094;12.434;2022-10-17T04:53:25;99841.50;;;11.60;100.00
61573;BME280;47465;43.094;12.434;2022-10-17T04:55:52;99832.94;;;11.37;100.00
61573;BME280;47465;43.094;12.434;2022-10-17T04:58:18;99824.09;;;11.33;100.00
61573;BME280;47465;43.094;12.434;2022-10-17T05:00:44;99859.53;;;11.38;100.00
61573;BME280;47465;43.094;12.434;2022-10-17T05:03:10;99829.59;;;11.21;100.00
61573;BME280;47465;43.094;12.434;2022-10-17T05:05:38;99863.19;;;11.31;100.00
61573;BME280;47465;43.094;12.434;2022-10-17T05:08:04;99858.72;;;11.35;100.00
61573;BME280;47465;43.094;12.434;2022-10-17T05:10:35;99844.47;;;11.39;100.00
61573;BME280;47465;43.094;12.434;2022-10-17T05:13:00;99847.03;;;11.45;100.00
61573;BME280;47465;43.094;12.434;2022-10-17T05:15:26;99842.56;;;11.47;100.00
61573;BME280;47465;43.094;12.434;2022-10-17T05:17:53;99850.53;;;11.50;100.00
61573;BME280;47465;43.094;12.434;2022-10-17T05:20:19;99846.84;;;11.59;100.00
61573;BME280;47465;43.094;12.434;2022-10-17T05:22:46;99837.13;;;11.55;100.00
61573;BME280;47465;43.094;12.434;2022-10-17T05:25:12;99835.28;;;11.60;100.00
61573;BME280;47465;43.094;12.434;2022-10-17T05:27:38;99836.13;;;11.63;100.00
61573;BME280;47465;43.094;12.434;2022-10-17T05:30:05;99859.09;;;11.70;100.00
61573;BME280;47465;43.094;12.434;2022-10-17T05:32:34;99840.66;;;11.58;100.00
61573;BME280;47465;43.094;12.434;2022-10-17T05:35:09;99853.06;;;11.58;100.00
61573;BME280;47465;43.094;12.434;2022-10-17T05:37:34;99855.66;;;11.64;100.00
61573;BME280;47465;43.094;12.434;2022-10-17T05:40:02;99854.00;;;11.55;100.00
61573;BME280;47465;43.094;12.434;2022-10-17T05:42:28;99849.59;;;11.54;100.00
61573;BME280;47465;43.094;12.434;2022-10-17T05:44:54;99847.81;;;11.53;100.00
61573;BME280;47465;43.094;12.434;2022-10-17T05:47:20;99846.94;;;11.51;100.00
61573;BME280;47465;43.094;12.434;2022-10-17T05:49:45;99855.72;;;11.59;100.00
61573;BME280;47465;43.094;12.434;2022-10-17T05:52:11;99849.53;;;11.56;100.00
61573;BME280;47465;43.094;12.434;2022-10-17T05:54:37;99851.31;;;11.58;100.00
61573;BME280;47465;43.094;12.434;2022-10-17T05:57:05;99847.00;;;11.48;100.00
61573;BME280;47465;43.094;12.434;2022-10-17T05:59:33;99855.94;;;11.44;100.00
61573;BME280;47465;43.094;12.434;2022-10-17T06:01:59;99870.03;;;11.50;100.00
61573;BME280;47465;43.094;12.434;2022-10-17T06:04:25;99885.88;;;11.61;100.00
61573;BME280;47465;43.094;12.434;2022-10-17T06:06:52;99868.25;;;11.51;100.00
61573;BME280;47465;43.094;12.434;2022-10-17T06:09:18;99887.63;;;11.62;100.00
61573;BME280;47465;43.094;12.434;2022-10-17T06:11:44;99874.38;;;11.59;100.00
61573;BME280;47465;43.094;12.434;2022-10-17T06:14:12;99896.34;;;11.77;100.00
61573;BME280;47465;43.094;12.434;2022-10-17T06:16:38;99876.88;;;11.70;100.00
61573;BME280;47465;43.094;12.434;2022-10-17T06:19:04;99881.28;;;11.74;100.00
61573;BME280;47465;43.094;12.434;2022-10-17T06:21:30;99883.78;;;11.86;100.00
61573;BME280;47465;43.094;12.434;2022-10-17T06:23:59;99878.47;;;11.85;100.00
61573;BME280;47465;43.094;12.434;2022-10-17T06:26:24;99903.03;;;12.08;100.00
61573;BME280;47465;43.094;12.434;2022-10-17T06:28:50;99889.66;;;12.10;100.00
61573;BME280;47465;43.094;12.434;2022-10-17T06:31:19;99888.69;;;12.14;100.00
61573;BME280;47465;43.094;12.434;2022-10-17T06:33:45;99908.91;;;12.29;100.00
61573;BME280;47465;43.094;12.434;2022-10-17T06:36:13;99920.19;;;12.48;100.00
61573;BME280;47465;43.094;12.434;2022-10-17T06:38:39;99900.66;;;12.44;100.00
61573;BME280;47465;43.094;12.434;2022-10-17T06:41:07;99909.31;;;12.60;100.00
61573;BME280;47465;43.094;12.434;2022-10-17T06:43:33;99940.97;;;12.82;100.00
61573;BME280;47465;43.094;12.434;2022-10-17T06:45:59;99943.69;;;12.79;100.00
61573;BME280;47465;43.094;12.434;2022-10-17T06:48:26;99945.38;;;12.84;100.00
61573;BME280;47465;43.094;12.434;2022-10-17T06:50:52;99939.22;;;12.79;100.00
61573;BME280;47465;43.094;12.434;2022-10-17T06:53:18;99956.63;;;13.02;100.00
61573;BME280;47465;43.094;12.434;2022-10-17T06:55:43;99936.31;;;12.93;100.00
61573;BME280;47465;43.094;12.434;2022-10-17T06:58:09;99935.19;;;13.05;100.00
61573;BME280;47465;43.094;12.434;2022-10-17T07:00:35;99942.13;;;13.17;100.00
61573;BME280;47465;43.094;12.434;2022-10-17T07:03:01;99953.25;;;13.40;100.00
61573;BME280;47465;43.094;12.434;2022-10-17T07:05:28;99930.22;;;13.34;100.00
61573;BME280;47465;43.094;12.434;2022-10-17T07:07:54;99930.06;;;13.42;100.00
61573;BME280;47465;43.094;12.434;2022-10-17T07:10:20;99956.50;;;13.58;100.00
61573;BME280;47465;43.094;12.434;2022-10-17T07:12:46;99951.22;;;13.53;100.00
61573;BME280;47465;43.094;12.434;2022-10-17T07:15:12;99947.56;;;13.59;100.00
61573;BME280;47465;43.094;12.434;2022-10-17T07:17:38;99959.75;;;13.72;100.00
61573;BME280;47465;43.094;12.434;2022-10-17T07:20:04;99942.09;;;13.65;100.00
61573;BME280;47465;43.094;12.434;2022-10-17T07:22:32;99960.81;;;13.63;100.00
61573;BME280;47465;43.094;12.434;2022-10-17T07:24:58;99943.03;;;13.62;100.00
61573;BME280;47465;43.094;12.434;2022-10-17T07:27:24;99955.09;;;13.82;100.00
61573;BME280;47465;43.094;12.434;2022-10-17T07:29:49;99955.22;;;13.75;100.00
61573;BME280;47465;43.094;12.434;2022-10-17T07:32:15;99971.56;;;14.04;100.00
61573;BME280;47465;43.094;12.434;2022-10-17T07:34:41;99982.66;;;14.26;100.00
61573;BME280;47465;43.094;12.434;2022-10-17T07:37:07;99962.81;;;14.36;100.00
61573;BME280;47465;43.094;12.434;2022-10-17T07:39:35;99981.91;;;14.60;100.00
61573;BME280;47465;43.094;12.434;2022-10-17T07:42:01;99964.69;;;14.70;100.00
61573;BME280;47465;43.094;12.434;2022-10-17T07:44:27;99967.19;;;14.77;100.00
61573;BME280;47465;43.094;12.434;2022-10-17T07:46:53;99980.22;;;14.91;100.00
61573;BME280;47465;43.094;12.434;2022-10-17T07:49:19;99979.91;;;15.04;100.00
61573;BME280;47465;43.094;12.434;2022-10-17T07:51:46;99983.94;;;15.20;100.00
61573;BME280;47465;43.094;12.434;2022-10-17T07:54:12;99978.41;;;15.26;98.74
61573;BME280;47465;43.094;12.434;2022-10-17T07:56:40;99969.16;;;15.05;98.19
61573;BME280;47465;43.094;12.434;2022-10-17T07:59:05;99985.75;;;15.19;99.51
61573;BME280;47465;43.094;12.434;2022-10-17T08:01:31;99980.34;;;15.21;99.25
61573;BME280;47465;43.094;12.434;2022-10-17T08:03:57;99969.03;;;15.10;100.00
61573;BME280;47465;43.094;12.434;2022-10-17T08:06:23;99995.22;;;14.98;100.00
61573;BME280;47465;43.094;12.434;2022-10-17T08:08:48;99981.06;;;14.93;100.00
61573;BME280;47465;43.094;12.434;2022-10-17T08:11:14;99992.31;;;15.08;100.00
61573;BME280;47465;43.094;12.434;2022-10-17T08:13:41;99985.06;;;15.11;99.85
61573;BME280;47465;43.094;12.434;2022-10-17T08:16:08;100000.94;;;15.52;100.00
61573;BME280;47465;43.094;12.434;2022-10-17T08:18:35;99983.47;;;15.71;98.63
61573;BME280;47465;43.094;12.434;2022-10-17T08:21:02;99989.84;;;15.98;96.02
61573;BME280;47465;43.094;12.434;2022-10-17T08:23:30;99998.84;;;16.26;94.36
61573;BME280;47465;43.094;12.434;2022-10-17T08:25:58;99977.91;;;16.37;92.94
61573;BME280;47465;43.094;12.434;2022-10-17T08:28:24;99966.91;;;16.46;91.19
61573;BME280;47465;43.094;12.434;2022-10-17T08:30:51;99985.00;;;16.68;89.68
61573;BME280;47465;43.094;12.434;2022-10-17T08:33:17;99977.47;;;16.79;90.16
61573;BME280;47465;43.094;12.434;2022-10-17T08:35:43;99968.28;;;16.86;89.42
61573;BME280;47465;43.094;12.434;2022-10-17T08:38:08;99991.78;;;17.06;88.26
61573;BME280;47465;43.094;12.434;2022-10-17T08:40:34;99989.78;;;17.13;87.14
61573;BME280;47465;43.094;12.434;2022-10-17T08:43:23;99983.94;;;17.27;87.11
61573;BME280;47465;43.094;12.434;2022-10-17T08:45:56;99993.63;;;17.06;86.27
61573;BME280;47465;43.094;12.434;2022-10-17T08:48:26;99990.84;;;16.80;87.49
61573;BME280;47465;43.094;12.434;2022-10-17T08:50:56;99983.03;;;17.01;87.31
61573;BME280;47465;43.094;12.434;2022-10-17T08:53:26;99987.41;;;17.03;84.89
61573;BME280;47465;43.094;12.434;2022-10-17T08:55:54;99979.50;;;16.99;86.13
61573;BME280;47465;43.094;12.434;2022-10-17T08:58:21;99978.00;;;16.90;85.85
61573;BME280;47465;43.094;12.434;2022-10-17T09:00:57;99990.06;;;17.05;85.96
61573;BME280;47465;43.094;12.434;2022-10-17T09:03:36;99969.94;;;17.17;85.70
61573;BME280;47465;43.094;12.434;2022-10-17T09:06:12;99983.03;;;17.26;82.39
61573;BME280;47465;43.094;12.434;2022-10-17T09:08:48;99985.88;;;17.48;83.85
61573;BME280;47465;43.094;12.434;2022-10-17T09:11:32;99986.19;;;17.64;81.20
61573;BME280;47465;43.094;12.434;2022-10-17T09:14:13;100001.38;;;17.90;80.87
61573;BME280;47465;43.094;12.434;2022-10-17T09:16:53;99999.47;;;17.94;81.36
61573;BME280;47465;43.094;12.434;2022-10-17T09:19:24;100008.78;;;18.09;80.09
61573;BME280;47465;43.094;12.434;2022-10-17T09:21:58;99987.25;;;18.09;78.76
61573;BME280;47465;43.094;12.434;2022-10-17T09:24:36;99997.34;;;18.25;78.62
61573;BME280;47465;43.094;12.434;2022-10-17T09:27:03;100004.50;;;18.26;78.93
61573;BME280;47465;43.094;12.434;2022-10-17T09:29:30;99998.59;;;18.39;77.63
61573;BME280;47465;43.094;12.434;2022-10-17T09:32:01;99989.38;;;18.46;77.73
61573;BME280;47465;43.094;12.434;2022-10-17T09:34:29;99989.28;;;18.47;79.02
61573;BME280;47465;43.094;12.434;2022-10-17T09:36:57;99986.91;;;18.40;78.87
61573;BME280;47465;43.094;12.434;2022-10-17T09:39:24;99986.69;;;18.46;80.02
61573;BME280;47465;43.094;12.434;2022-10-17T09:41:53;99990.91;;;18.52;79.89
61573;BME280;47465;43.094;12.434;2022-10-17T09:44:21;100005.41;;;18.71;79.43
61573;BME280;47465;43.094;12.434;2022-10-17T09:46:57;99983.03;;;18.69;78.53
61573;BME280;47465;43.094;12.434;2022-10-17T09:49:30;99980.03;;;18.77;78.28
61573;BME280;47465;43.094;12.434;2022-10-17T09:51:57;99991.63;;;18.57;77.92
61573;BME280;47465;43.094;12.434;2022-10-17T09:54:24;100007.41;;;18.66;79.36
61573;BME280;47465;43.094;12.434;2022-10-17T09:56:56;100008.09;;;18.71;78.81
61573;BME280;47465;43.094;12.434;2022-10-17T09:59:30;100002.19;;;18.85;79.52
61573;BME280;47465;43.094;12.434;2022-10-17T10:02:07;99999.56;;;19.04;78.77
61573;BME280;47465;43.094;12.434;2022-10-17T10:04:35;99994.84;;;19.11;77.07
61573;BME280;47465;43.094;12.434;2022-10-17T10:07:03;100003.19;;;19.04;78.43
61573;BME280;47465;43.094;12.434;2022-10-17T10:09:31;99997.03;;;19.01;79.52
61573;BME280;47465;43.094;12.434;2022-10-17T10:12:00;99988.56;;;18.88;79.72
61573;BME280;47465;43.094;12.434;2022-10-17T10:14:29;99982.94;;;18.94;79.39
61573;BME280;47465;43.094;12.434;2022-10-17T10:16:59;99988.00;;;19.02;78.36
61573;BME280;47465;43.094;12.434;2022-10-17T10:19:28;100011.94;;;19.09;79.91
61573;BME280;47465;43.094;12.434;2022-10-17T10:21:57;99997.13;;;19.20;79.96
61573;BME280;47465;43.094;12.434;2022-10-17T10:24:24;100003.88;;;19.30;78.61
61573;BME280;47465;43.094;12.434;2022-10-17T10:26:52;99979.59;;;19.09;78.83
61573;BME280;47465;43.094;12.434;2022-10-17T10:29:22;99998.50;;;19.08;78.26
61573;BME280;47465;43.094;12.434;2022-10-17T10:31:51;99990.38;;;19.09;79.16
61573;BME280;47465;43.094;12.434;2022-10-17T10:34:20;99996.50;;;19.13;80.61
61573;BME280;47465;43.094;12.434;2022-10-17T10:36:53;99986.53;;;19.15;79.87
61573;BME280;47465;43.094;12.434;2022-10-17T10:42:05;100006.91;;;19.22;79.47
61573;BME280;47465;43.094;12.434;2022-10-17T10:44:32;99983.56;;;19.21;78.80
61573;BME280;47465;43.094;12.434;2022-10-17T10:47:13;99992.81;;;19.36;78.97
61573;BME280;47465;43.094;12.434;2022-10-17T10:49:43;99983.09;;;19.32;78.11
61573;BME280;47465;43.094;12.434;2022-10-17T10:52:15;99974.88;;;19.35;76.99
61573;BME280;47465;43.094;12.434;2022-10-17T10:54:51;99992.88;;;19.55;78.39
61573;BME280;47465;43.094;12.434;2022-10-17T10:57:20;99967.78;;;19.53;76.54
61573;BME280;47465;43.094;12.434;2022-10-17T10:59:53;99977.28;;;19.62;76.00
61573;BME280;47465;43.094;12.434;2022-10-17T11:02:24;99982.97;;;19.76;75.36
61573;BME280;47465;43.094;12.434;2022-10-17T11:04:55;99971.84;;;19.63;74.53
61573;BME280;47465;43.094;12.434;2022-10-17T11:07:26;99976.91;;;19.71;74.24
61573;BME280;47465;43.094;12.434;2022-10-17T11:10:02;99963.00;;;19.60;73.37
61573;BME280;47465;43.094;12.434;2022-10-17T11:12:33;99960.03;;;19.66;73.75
61573;BME280;47465;43.094;12.434;2022-10-17T11:15:06;99957.06;;;19.72;74.32
61573;BME280;47465;43.094;12.434;2022-10-17T11:17:37;99972.84;;;19.81;73.12
61573;BME280;47465;43.094;12.434;2022-10-17T11:20:17;99962.78;;;19.85;73.40
61573;BME280;47465;43.094;12.434;2022-10-17T11:22:46;99970.63;;;19.91;71.03
61573;BME280;47465;43.094;12.434;2022-10-17T11:25:21;99951.78;;;19.89;70.85
61573;BME280;47465;43.094;12.434;2022-10-17T11:27:49;99950.09;;;20.06;70.91
61573;BME280;47465;43.094;12.434;2022-10-17T11:30:15;99942.16;;;20.22;70.61
61573;BME280;47465;43.094;12.434;2022-10-17T11:32:43;99951.41;;;20.35;70.41
61573;BME280;47465;43.094;12.434;2022-10-17T11:35:14;99948.66;;;20.37;68.79
61573;BME280;47465;43.094;12.434;2022-10-17T11:37:45;99930.84;;;20.33;66.55
61573;BME280;47465;43.094;12.434;2022-10-17T11:40:17;99930.84;;;20.33;64.94
61573;BME280;47465;43.094;12.434;2022-10-17T11:42:51;99933.31;;;20.37;63.00
61573;BME280;47465;43.094;12.434;2022-10-17T11:45:21;99925.25;;;20.36;63.00
61573;BME280;47465;43.094;12.434;2022-10-17T11:47:51;99939.56;;;20.57;64.89
61573;BME280;47465;43.094;12.434;2022-10-17T11:50:22;99930.50;;;20.58;64.01
61573;BME280;47465;43.094;12.434;2022-10-17T11:52:52;99916.78;;;20.62;64.54
61573;BME280;47465;43.094;12.434;2022-10-17T11:55:22;99913.47;;;20.56;63.79
61573;BME280;47465;43.094;12.434;2022-10-17T11:58:00;99935.00;;;20.76;64.63
61573;BME280;47465;43.094;12.434;2022-10-17T12:00:42;99911.97;;;20.69;64.45
61573;BME280;47465;43.094;12.434;2022-10-17T12:03:22;99929.13;;;20.85;64.08
61573;BME280;47465;43.094;12.434;2022-10-17T12:05:54;99928.03;;;20.89;61.32
61573;BME280;47465;43.094;12.434;2022-10-17T12:08:29;99891.34;;;20.84;61.88
61573;BME280;47465;43.094;12.434;2022-10-17T12:11:00;99900.19;;;20.87;61.78
61573;BME280;47465;43.094;12.434;2022-10-17T12:13:46;99899.81;;;20.95;61.40
61573;BME280;47465;43.094;12.434;2022-10-17T12:19:35;99913.78;;;21.03;62.46
61573;BME280;47465;43.094;12.434;2022-10-17T12:22:04;99891.84;;;20.92;61.40
61573;BME280;47465;43.094;12.434;2022-10-17T12:24:34;99889.94;;;20.94;61.46
61573;BME280;47465;43.094;12.434;2022-10-17T12:27:22;99905.53;;;21.06;61.49
61573;BME280;47465;43.094;12.434;2022-10-17T12:29:48;99905.53;;;21.06;61.60
61573;BME280;47465;43.094;12.434;2022-10-17T12:32:15;99895.19;;;21.15;61.91
61573;BME280;47465;43.094;12.434;2022-10-17T12:34:50;99892.47;;;21.15;61.95
61573;BME280;47465;43.094;12.434;2022-10-17T12:41:02;99905.28;;;21.28;61.02
61573;BME280;47465;43.094;12.434;2022-10-17T12:43:43;99893.72;;;21.25;61.32
61573;BME280;47465;43.094;12.434;2022-10-17T12:46:09;99901.53;;;21.31;61.89
61573;BME280;47465;43.094;12.434;2022-10-17T12:52:14;99898.28;;;21.42;61.28
61573;BME280;47465;43.094;12.434;2022-10-17T12:54:42;99901.13;;;21.39;60.96
61573;BME280;47465;43.094;12.434;2022-10-17T12:57:14;99885.94;;;21.36;61.17
61573;BME280;47465;43.094;12.434;2022-10-17T12:59:45;99881.97;;;21.26;60.67
61573;BME280;47465;43.094;12.434;2022-10-17T13:02:18;99877.16;;;21.31;61.55
61573;BME280;47465;43.094;12.434;2022-10-17T13:04:44;99875.56;;;21.44;61.47
61573;BME280;47465;43.094;12.434;2022-10-17T13:07:17;99887.84;;;21.51;60.29